createdAt,value
2018-09-23T00:01:09.532Z,30.40
2018-09-23T00:03:38.649Z,26.33
2018-09-23T00:06:07.559Z,29.43
2018-09-23T00:08:36.614Z,29.43
2018-09-23T00:11:05.575Z,35.67
2018-09-23T00:13:34.874Z,31.67
2018-09-23T00:16:03.758Z,27.60
2018-09-23T00:18:32.655Z,20.33
2018-09-23T00:21:01.543Z,51.57
2018-09-23T00:23:30.446Z,27.47
2018-09-23T00:25:59.540Z,15.23
2018-09-23T00:28:28.400Z,16.83
2018-09-23T00:30:57.412Z,14.07
2018-09-23T00:33:26.447Z,15.63
2018-09-23T00:35:55.342Z,12.20
2018-09-23T00:38:24.232Z,13.50
2018-09-23T00:40:53.242Z,14.30
2018-09-23T00:43:22.179Z,21.40
2018-09-23T00:45:51.534Z,29.70
2018-09-23T00:48:20.417Z,18.67
2018-09-23T00:50:49.347Z,20.53
2018-09-23T00:53:18.370Z,25.20
2018-09-23T00:55:47.389Z,37.10
2018-09-23T00:58:16.308Z,35.47
2018-09-23T01:00:45.295Z,39.23
2018-09-23T01:03:14.117Z,25.73
2018-09-23T01:05:43.083Z,22.17
2018-09-23T01:08:12.040Z,28.40
2018-09-23T01:10:41.106Z,15.90
2018-09-23T01:13:10.031Z,18.30
2018-09-23T01:15:38.983Z,14.93
2018-09-23T01:18:07.908Z,15.37
2018-09-23T01:20:36.725Z,15.00
2018-09-23T01:23:05.820Z,14.83
2018-09-23T01:25:34.723Z,17.73
2018-09-23T01:28:03.638Z,16.87
2018-09-23T01:30:32.540Z,13.47
2018-09-23T01:33:01.458Z,15.20
2018-09-23T01:35:30.416Z,15.23
2018-09-23T01:37:59.283Z,16.23
2018-09-23T01:40:28.155Z,16.60
2018-09-23T01:42:57.049Z,15.97
2018-09-23T01:45:25.988Z,15.73
2018-09-23T01:47:54.979Z,14.70
2018-09-23T01:50:23.836Z,14.53
2018-09-23T01:52:52.835Z,15.40
2018-09-23T01:55:21.783Z,12.93
2018-09-23T01:57:50.663Z,14.87
2018-09-23T02:00:19.586Z,15.30
2018-09-23T02:02:48.547Z,16.00
2018-09-23T02:05:17.471Z,17.00
2018-09-23T02:07:46.352Z,16.80
2018-09-23T02:10:15.346Z,17.63
2018-09-23T02:12:44.253Z,18.53
2018-09-23T02:15:13.141Z,19.57
2018-09-23T02:17:42.116Z,20.60
2018-09-23T02:20:11.064Z,21.43
2018-09-23T02:22:39.992Z,20.90
2018-09-23T02:25:08.846Z,20.13
2018-09-23T02:27:37.939Z,29.13
2018-09-23T02:30:06.945Z,40.50
2018-09-23T02:32:35.862Z,40.20
2018-09-23T02:35:04.786Z,38.53
2018-09-23T02:37:33.756Z,29.77
2018-09-23T02:40:02.724Z,27.23
2018-09-23T02:44:55.348Z,33.50
2018-09-23T02:47:24.351Z,27.63
2018-09-23T02:49:53.320Z,36.43
2018-09-23T02:52:23.448Z,28.93
2018-09-23T02:54:52.438Z,17.87
2018-09-23T02:57:21.363Z,20.23
2018-09-23T02:59:50.231Z,21.17
2018-09-23T03:02:19.332Z,20.77
2018-09-23T03:04:48.299Z,24.63
2018-09-23T03:07:17.184Z,29.33
2018-09-23T03:09:46.182Z,20.20
2018-09-23T03:12:15.051Z,15.87
2018-09-23T03:14:44.173Z,16.07
2018-09-23T03:17:13.136Z,16.63
2018-09-23T03:19:41.980Z,15.67
2018-09-23T03:22:10.855Z,13.73
2018-09-23T03:24:39.816Z,18.13
2018-09-23T03:27:08.785Z,13.87
2018-09-23T03:29:37.708Z,16.50
2018-09-23T03:32:06.747Z,14.73
2018-09-23T03:34:35.635Z,28.87
2018-09-23T03:37:04.590Z,24.57
2018-09-23T03:39:33.612Z,32.93
2018-09-23T03:42:02.578Z,32.60
2018-09-23T03:44:31.504Z,25.47
2018-09-23T03:47:00.487Z,24.53
2018-09-23T03:49:29.379Z,28.57
2018-09-23T03:51:58.270Z,35.67
2018-09-23T03:54:27.197Z,35.53
2018-09-23T03:56:56.167Z,48.30
2018-09-23T03:59:25.089Z,30.53
2018-09-23T04:01:54.081Z,29.07
2018-09-23T04:04:24.191Z,20.43
2018-09-23T04:06:53.052Z,21.33
2018-09-23T04:09:21.932Z,21.03
2018-09-23T04:11:50.932Z,32.00
2018-09-23T04:14:19.956Z,36.30
2018-09-23T04:16:48.939Z,32.70
2018-09-23T04:19:17.906Z,31.27
2018-09-23T04:21:46.811Z,29.63
2018-09-23T04:24:15.692Z,25.07
2018-09-23T04:26:44.663Z,29.27
2018-09-23T04:29:13.514Z,19.87
2018-09-23T04:31:42.383Z,18.93
2018-09-23T04:34:12.567Z,30.10
2018-09-23T04:36:41.462Z,33.83
2018-09-23T04:39:11.466Z,39.00
2018-09-23T04:41:40.456Z,39.07
2018-09-23T04:44:09.365Z,38.87
2018-09-23T04:46:38.291Z,42.27
2018-09-23T04:49:07.307Z,35.00
2018-09-23T04:51:37.450Z,39.30
2018-09-23T04:54:06.432Z,22.70
2018-09-23T04:56:35.368Z,26.73
2018-09-23T04:59:04.311Z,31.47
2018-09-23T05:01:33.220Z,37.90
2018-09-23T05:04:02.131Z,36.37
2018-09-23T05:06:31.069Z,30.00
2018-09-23T05:08:59.984Z,28.47
2018-09-23T05:11:28.903Z,21.07
2018-09-23T05:13:57.816Z,16.73
2018-09-23T05:16:26.780Z,18.77
2018-09-23T05:18:55.724Z,20.37
2018-09-23T05:21:26.255Z,16.63
2018-09-23T05:23:55.152Z,18.23
2018-09-23T05:26:24.044Z,14.20
2018-09-23T05:28:52.935Z,20.83
2018-09-23T05:31:21.872Z,37.07
2018-09-23T05:33:50.783Z,39.53
2018-09-23T05:36:19.684Z,41.30
2018-09-23T05:38:48.596Z,28.87
2018-09-23T05:41:17.527Z,33.67
2018-09-23T05:43:46.450Z,33.93
2018-09-23T05:46:15.333Z,42.00
2018-09-23T05:48:45.631Z,40.03
2018-09-23T05:51:14.507Z,41.33
2018-09-23T05:53:44.828Z,33.53
2018-09-23T05:56:13.863Z,22.63
2018-09-23T05:58:42.945Z,17.17
2018-09-23T06:01:12.550Z,18.40
2018-09-23T06:03:41.432Z,18.00
2018-09-23T06:06:10.514Z,18.60
2018-09-23T06:08:39.547Z,20.57
2018-09-23T06:11:09.868Z,16.80
2018-09-23T06:13:38.728Z,17.40
2018-09-23T06:16:07.657Z,17.93
2018-09-23T06:18:36.938Z,13.80
2018-09-23T06:21:05.925Z,16.37
2018-09-23T06:23:34.887Z,17.17
2018-09-23T06:26:05.040Z,19.07
2018-09-23T06:28:33.900Z,16.67
2018-09-23T06:31:02.794Z,16.30
2018-09-23T06:33:31.746Z,14.20
2018-09-23T06:36:00.641Z,16.03
2018-09-23T06:38:31.209Z,21.87
2018-09-23T06:41:00.081Z,21.20
2018-09-23T06:43:28.987Z,16.20
2018-09-23T06:45:59.224Z,17.40
2018-09-23T06:48:28.244Z,19.03
2018-09-23T06:50:57.201Z,18.93
2018-09-23T06:53:27.366Z,21.17
2018-09-23T06:55:57.496Z,22.20
2018-09-23T06:58:26.329Z,22.73
2018-09-23T07:00:55.296Z,15.43
2018-09-23T07:03:24.183Z,14.83
2018-09-23T07:05:53.025Z,16.07
2018-09-23T07:08:23.388Z,12.63
2018-09-23T07:10:52.303Z,14.07
2018-09-23T07:13:21.141Z,13.47
2018-09-23T07:15:50.099Z,12.80
2018-09-23T07:18:18.993Z,14.73
2018-09-23T07:20:48.026Z,13.50
2018-09-23T07:23:16.975Z,14.50
2018-09-23T07:25:45.913Z,15.70
2018-09-23T07:28:15.659Z,17.83
2018-09-23T07:30:45.886Z,17.70
2018-09-23T07:33:14.783Z,18.00
2018-09-23T07:35:43.639Z,18.87
2018-09-23T07:38:12.637Z,18.90
2018-09-23T07:40:41.523Z,18.87
2018-09-23T07:43:10.406Z,22.50
2018-09-23T07:45:40.852Z,19.00
2018-09-23T07:48:09.837Z,20.47
2018-09-23T07:50:38.857Z,17.17
2018-09-23T07:53:07.783Z,18.00
2018-09-23T07:55:36.712Z,19.17
2018-09-23T07:58:05.791Z,25.47
2018-09-23T08:00:36.071Z,18.20
2018-09-23T08:03:04.980Z,17.77
2018-09-23T08:05:33.896Z,17.40
2018-09-23T08:08:04.188Z,19.23
2018-09-23T08:10:33.126Z,17.47
2018-09-23T08:13:02.325Z,23.27
2018-09-23T08:15:31.199Z,16.93
2018-09-23T08:18:00.127Z,18.33
2018-09-23T08:20:29.172Z,19.43
2018-09-23T08:22:57.977Z,21.00
2018-09-23T08:25:26.921Z,17.20
2018-09-23T08:27:55.939Z,17.23
2018-09-23T08:30:26.172Z,18.10
2018-09-23T08:32:55.087Z,18.43
2018-09-23T08:35:25.476Z,17.40
2018-09-23T08:37:54.388Z,17.93
2018-09-23T08:40:23.231Z,18.27
2018-09-23T08:42:53.392Z,16.73
2018-09-23T08:45:22.240Z,17.93
2018-09-23T08:47:51.259Z,19.50
2018-09-23T08:50:20.187Z,17.77
2018-09-23T08:52:50.415Z,18.43
2018-09-23T08:55:19.297Z,18.37
2018-09-23T08:57:48.254Z,20.00
2018-09-23T09:00:17.420Z,19.13
2018-09-23T09:02:46.446Z,19.13
2018-09-23T09:05:15.563Z,18.93
2018-09-23T09:07:44.624Z,27.87
2018-09-23T09:10:13.568Z,18.00
2018-09-23T09:12:42.580Z,18.90
2018-09-23T09:15:11.711Z,24.60
2018-09-23T09:17:40.676Z,22.03
2018-09-23T09:20:09.641Z,22.00
2018-09-23T09:22:38.634Z,22.23
2018-09-23T09:25:07.627Z,22.13
2018-09-23T09:27:36.569Z,25.63
2018-09-23T09:30:05.902Z,22.60
2018-09-23T09:32:35.163Z,24.07
2018-09-23T09:35:04.207Z,20.97
2018-09-23T09:37:33.160Z,25.27
2018-09-23T09:40:02.135Z,19.87
2018-09-23T09:42:31.200Z,20.17
2018-09-23T09:45:00.169Z,22.47
2018-09-23T09:47:29.284Z,23.00
2018-09-23T09:49:58.334Z,18.87
2018-09-23T09:52:27.292Z,21.77
2018-09-23T09:54:56.434Z,25.93
2018-09-23T09:57:26.742Z,25.10
2018-09-23T09:59:55.702Z,22.33
2018-09-23T10:02:24.636Z,22.20
2018-09-23T10:04:53.602Z,21.07
2018-09-23T10:07:23.867Z,21.33
2018-09-23T10:09:52.772Z,20.80
2018-09-23T10:12:21.753Z,24.70
2018-09-23T10:14:50.749Z,21.33
2018-09-23T10:17:19.876Z,24.43
2018-09-23T10:19:50.059Z,21.03
2018-09-23T10:22:19.024Z,21.60
2018-09-23T10:24:47.962Z,27.93
2018-09-23T10:27:18.407Z,26.00
2018-09-23T10:29:47.346Z,23.73
2018-09-23T10:32:16.316Z,25.63
2018-09-23T10:34:45.337Z,25.97
2018-09-23T10:37:14.298Z,23.93
2018-09-23T10:39:43.255Z,24.87
2018-09-23T10:42:13.571Z,29.53
2018-09-23T10:44:42.526Z,23.63
2018-09-23T10:47:11.452Z,22.50
2018-09-23T10:49:40.513Z,23.40
2018-09-23T10:52:09.520Z,26.73
2018-09-23T10:54:38.491Z,22.70
2018-09-23T10:57:07.462Z,28.20
2018-09-23T10:59:37.889Z,22.63
2018-09-23T11:02:06.844Z,27.50
2018-09-23T11:04:35.800Z,20.23
2018-09-23T11:07:06.006Z,25.33
2018-09-23T11:09:34.945Z,24.33
2018-09-23T11:12:03.925Z,23.90
2018-09-23T11:14:34.302Z,26.00
2018-09-23T11:17:03.226Z,27.20
2018-09-23T11:19:32.136Z,23.80
2018-09-23T11:22:02.424Z,19.57
2018-09-23T11:24:31.325Z,20.37
2018-09-23T11:27:00.270Z,25.23
2018-09-23T11:29:30.732Z,22.17
2018-09-23T11:31:59.642Z,24.00
2018-09-23T11:34:28.571Z,23.30
2018-09-23T11:36:58.725Z,24.33
2018-09-23T11:39:27.675Z,22.23
2018-09-23T11:41:56.616Z,19.40
2018-09-23T11:44:25.687Z,21.00
2018-09-23T11:46:54.639Z,16.90
2018-09-23T11:49:23.608Z,20.57
2018-09-23T11:51:52.615Z,20.93
2018-09-23T11:54:21.762Z,20.97
2018-09-23T11:56:50.732Z,17.97
2018-09-23T11:59:21.414Z,22.43
2018-09-23T12:01:50.437Z,21.03
2018-09-23T12:04:19.381Z,18.73
2018-09-23T12:06:48.371Z,19.93
2018-09-23T12:09:17.413Z,19.27
2018-09-23T12:11:46.356Z,24.13
2018-09-23T12:14:15.330Z,18.30
2018-09-23T12:16:44.246Z,20.50
2018-09-23T12:19:13.164Z,20.07
2018-09-23T12:21:42.152Z,22.47
2018-09-23T12:24:11.181Z,22.80
2018-09-23T12:26:40.134Z,17.93
2018-09-23T12:29:09.120Z,16.87
2018-09-23T12:31:38.124Z,19.10
2018-09-23T12:34:07.076Z,17.80
2018-09-23T12:36:37.398Z,21.07
2018-09-23T12:39:09.253Z,19.90
2018-09-23T12:41:39.812Z,19.30
2018-09-23T12:44:08.954Z,18.47
2018-09-23T12:46:37.892Z,17.03
2018-09-23T12:49:07.081Z,20.70
2018-09-23T12:51:36.008Z,24.07
2018-09-23T12:54:04.922Z,24.00
2018-09-23T12:56:34.270Z,21.60
2018-09-23T12:59:03.221Z,21.80
2018-09-23T13:01:32.140Z,21.23
2018-09-23T13:04:01.119Z,20.83
2018-09-23T13:06:30.075Z,18.67
2018-09-23T13:08:59.007Z,17.20
2018-09-23T13:11:27.969Z,22.00
2018-09-23T13:13:56.896Z,16.67
2018-09-23T13:16:26.771Z,18.47
2018-09-23T13:18:55.793Z,14.73
2018-09-23T13:21:24.809Z,15.53
2018-09-23T13:23:53.725Z,17.57
2018-09-23T13:26:22.643Z,21.77
2018-09-23T13:28:51.655Z,22.10
2018-09-23T13:31:20.620Z,17.47
2018-09-23T13:33:49.559Z,18.77
2018-09-23T13:36:18.518Z,19.50
2018-09-23T13:38:47.452Z,18.53
2018-09-23T13:41:16.369Z,17.87
2018-09-23T13:43:45.373Z,17.13
2018-09-23T13:46:14.346Z,19.63
2018-09-23T13:48:43.384Z,21.03
2018-09-23T13:51:12.494Z,16.37
2018-09-23T13:53:41.511Z,21.10
2018-09-23T13:56:10.480Z,21.47
2018-09-23T13:58:40.824Z,17.73
2018-09-23T14:01:10.074Z,18.67
2018-09-23T14:03:39.236Z,18.53
2018-09-23T14:06:09.618Z,18.20
2018-09-23T14:08:38.624Z,18.43
2018-09-23T14:11:07.775Z,20.17
2018-09-23T14:13:36.813Z,22.33
2018-09-23T14:16:05.795Z,17.10
2018-09-23T14:18:34.793Z,23.87
2018-09-23T14:21:05.157Z,22.53
2018-09-23T14:23:34.187Z,25.20
2018-09-23T14:26:03.156Z,18.70
2018-09-23T14:28:32.145Z,16.40
2018-09-23T14:31:01.132Z,18.03
2018-09-23T14:33:31.453Z,18.90
2018-09-23T14:36:00.599Z,19.73
2018-09-23T14:38:29.636Z,15.50
2018-09-23T14:40:59.974Z,23.60
2018-09-23T14:43:28.931Z,24.43
2018-09-23T14:45:57.845Z,15.33
2018-09-23T14:48:28.294Z,20.07
2018-09-23T14:50:57.202Z,19.20
2018-09-23T14:53:26.157Z,25.53
2018-09-23T14:55:56.422Z,17.53
2018-09-23T14:58:25.333Z,22.00
2018-09-23T15:00:54.403Z,22.07
2018-09-23T15:03:25.909Z,24.87
2018-09-23T15:05:54.892Z,24.20
2018-09-23T15:08:23.890Z,16.77
2018-09-23T15:10:52.825Z,21.47
2018-09-23T15:13:21.761Z,15.80
2018-09-23T15:15:51.906Z,22.90
2018-09-23T15:18:20.892Z,22.67
2018-09-23T15:20:49.877Z,19.63
2018-09-23T15:23:18.832Z,21.23
2018-09-23T15:25:49.074Z,20.40
2018-09-23T15:28:19.282Z,23.37
2018-09-23T15:30:48.270Z,23.27
2018-09-23T15:33:17.239Z,22.30
2018-09-23T15:35:46.219Z,19.67
2018-09-23T15:38:15.171Z,23.23
2018-09-23T15:40:44.197Z,19.60
2018-09-23T15:43:13.150Z,17.53
2018-09-23T15:45:42.116Z,22.20
2018-09-23T15:48:12.595Z,22.73
2018-09-23T15:50:41.527Z,18.03
2018-09-23T15:53:10.392Z,21.40
2018-09-23T15:55:39.332Z,19.87
2018-09-23T15:58:08.572Z,24.73
2018-09-23T16:00:37.452Z,20.77
2018-09-23T16:03:06.548Z,22.10
2018-09-23T16:05:35.501Z,24.60
2018-09-23T16:08:04.359Z,21.23
2018-09-23T16:10:34.534Z,20.93
2018-09-23T16:13:03.476Z,20.03
2018-09-23T16:15:32.476Z,19.27
2018-09-23T16:18:01.529Z,27.07
2018-09-23T16:20:30.565Z,25.13
2018-09-23T16:22:59.530Z,22.43
2018-09-23T16:25:29.873Z,25.07
2018-09-23T16:27:58.803Z,44.37
2018-09-23T16:30:27.742Z,28.90
2018-09-23T16:32:56.792Z,37.70
2018-09-23T16:35:25.717Z,26.90
2018-09-23T16:37:54.629Z,25.53
2018-09-23T16:40:24.863Z,23.77
2018-09-23T16:42:53.805Z,25.50
2018-09-23T16:45:22.780Z,31.30
2018-09-23T16:47:51.799Z,19.43
2018-09-23T16:50:20.713Z,30.23
2018-09-23T16:52:49.652Z,32.90
2018-09-23T16:55:18.628Z,20.80
2018-09-23T16:57:47.672Z,22.43
2018-09-23T17:00:17.972Z,26.63
2018-09-23T17:02:46.992Z,23.83
2018-09-23T17:05:15.944Z,24.10
2018-09-23T17:07:44.904Z,21.70
2018-09-23T17:10:13.874Z,20.00
2018-09-23T17:12:42.922Z,25.40
2018-09-23T17:15:11.957Z,23.53
2018-09-23T17:17:40.971Z,21.30
2018-09-23T17:20:10.006Z,26.83
2018-09-23T17:22:38.997Z,22.67
2018-09-23T17:25:07.497Z,20.57
2018-09-23T17:27:36.548Z,24.53
2018-09-23T17:30:05.838Z,20.90
2018-09-23T17:32:34.751Z,24.40
2018-09-23T17:35:03.925Z,23.30
2018-09-23T17:37:32.855Z,19.67
2018-09-23T17:40:01.751Z,21.40
2018-09-23T17:42:30.820Z,27.70
2018-09-23T17:44:59.741Z,19.33
2018-09-23T17:47:28.952Z,24.03
2018-09-23T17:49:57.884Z,24.82
2018-09-23T17:52:26.888Z,26.77
2018-09-23T17:54:57.179Z,23.97
2018-09-23T17:57:26.064Z,24.10
2018-09-23T17:59:55.059Z,23.97
2018-09-23T18:02:24.206Z,17.93
2018-09-23T18:04:55.602Z,27.10
2018-09-23T18:07:24.572Z,23.97
2018-09-23T18:09:53.479Z,21.27
2018-09-23T18:12:22.360Z,27.27
2018-09-23T18:14:51.309Z,23.83
2018-09-23T18:17:20.333Z,27.17
2018-09-23T18:19:49.239Z,25.97
2018-09-23T18:22:18.192Z,22.60
2018-09-23T18:24:47.148Z,20.33
2018-09-23T18:27:16.044Z,25.47
2018-09-23T18:29:45.177Z,27.10
2018-09-23T18:32:14.190Z,19.23
2018-09-23T18:34:43.184Z,21.70
2018-09-23T18:37:12.166Z,26.90
2018-09-23T18:39:41.069Z,20.23
2018-09-23T18:42:10.066Z,27.47
2018-09-23T18:44:39.060Z,23.53
2018-09-23T18:47:07.992Z,26.47
2018-09-23T18:49:36.960Z,29.40
2018-09-23T18:52:05.931Z,27.17
2018-09-23T18:54:41.225Z,24.80
2018-09-23T18:57:10.126Z,28.03
2018-09-23T18:59:39.081Z,20.47
2018-09-23T19:02:08.039Z,24.87
2018-09-23T19:04:36.978Z,24.53
2018-09-23T19:07:05.956Z,27.03
2018-09-23T19:09:34.998Z,25.47
2018-09-23T19:12:03.974Z,26.20
2018-09-23T19:14:35.690Z,28.17
2018-09-23T19:17:04.821Z,24.67
2018-09-23T19:19:38.942Z,23.70
2018-09-23T19:22:11.902Z,24.63
2018-09-23T19:24:42.004Z,26.90
2018-09-23T19:27:10.945Z,28.30
2018-09-23T19:29:39.872Z,27.13
2018-09-23T19:32:08.817Z,23.27
2018-09-23T19:34:37.770Z,29.10
2018-09-23T19:37:06.868Z,23.33
2018-09-23T19:39:35.829Z,24.73
2018-09-23T19:42:04.740Z,30.47
2018-09-23T19:44:33.743Z,23.83
2018-09-23T19:47:02.760Z,24.07
2018-09-23T19:49:31.687Z,29.10
2018-09-23T19:52:00.744Z,27.23
2018-09-23T19:54:29.740Z,27.43
2018-09-23T19:56:58.915Z,26.70
2018-09-23T19:59:27.885Z,24.87
2018-09-23T20:01:56.894Z,30.10
2018-09-23T20:04:25.883Z,25.53
2018-09-23T20:07:01.313Z,27.80
2018-09-23T20:09:31.620Z,25.57
2018-09-23T20:12:00.498Z,31.03
2018-09-23T20:14:29.427Z,29.67
2018-09-23T20:16:59.711Z,26.90
2018-09-23T20:19:28.641Z,30.67
2018-09-23T20:21:57.580Z,21.23
2018-09-23T20:24:27.849Z,26.00
2018-09-23T20:26:56.802Z,33.37
2018-09-23T20:29:25.724Z,28.57
2018-09-23T20:31:54.720Z,25.60
2018-09-23T20:34:23.736Z,24.97
2018-09-23T20:36:53.971Z,25.27
2018-09-23T20:39:24.141Z,26.27
2018-09-23T20:41:54.367Z,33.83
2018-09-23T20:44:23.299Z,22.27
2018-09-23T20:46:53.437Z,24.40
2018-09-23T20:49:22.304Z,23.17
2018-09-23T20:51:51.203Z,29.17
2018-09-23T20:54:20.136Z,27.57
2018-09-23T20:56:49.083Z,25.73
2018-09-23T20:59:19.516Z,27.53
2018-09-23T21:01:48.532Z,33.50
2018-09-23T21:04:17.359Z,27.30
2018-09-23T21:06:46.271Z,27.53
2018-09-23T21:09:15.217Z,27.57
2018-09-23T21:11:44.293Z,30.53
2018-09-23T21:14:13.276Z,27.93
2018-09-23T21:16:42.342Z,25.50
2018-09-23T21:19:11.424Z,26.17
2018-09-23T21:21:40.354Z,26.57
2018-09-23T21:24:10.703Z,31.70
2018-09-23T21:26:39.557Z,31.77
2018-09-23T21:29:08.520Z,27.00
2018-09-23T21:31:37.808Z,27.37
2018-09-23T21:34:06.745Z,27.90
2018-09-23T21:36:35.669Z,27.20
2018-09-23T21:39:05.752Z,28.83
2018-09-23T21:41:34.695Z,30.43
2018-09-23T21:44:03.714Z,27.40
2018-09-23T21:46:32.582Z,28.53
2018-09-23T21:49:01.514Z,37.00
2018-09-23T21:51:30.545Z,25.37
2018-09-23T21:53:59.476Z,28.67
2018-09-23T21:56:28.520Z,30.37
2018-09-23T21:58:57.677Z,26.53
2018-09-23T22:01:26.577Z,33.07
2018-09-23T22:03:55.561Z,33.70
2018-09-23T22:06:24.531Z,39.10
2018-09-23T22:08:53.457Z,41.30
2018-09-23T22:11:22.420Z,32.70
2018-09-23T22:13:51.387Z,34.50
2018-09-23T22:16:20.399Z,31.73
2018-09-23T22:18:49.279Z,34.87
2018-09-23T22:21:18.248Z,32.83
2018-09-23T22:23:47.233Z,36.57
2018-09-23T22:26:16.188Z,32.30
2018-09-23T22:28:45.152Z,29.77
2018-09-23T22:31:14.145Z,41.13
2018-09-23T22:33:43.133Z,38.00
2018-09-23T22:36:12.055Z,38.20
2018-09-23T22:38:41.019Z,27.83
2018-09-23T22:41:09.983Z,30.77
2018-09-23T22:43:38.872Z,30.90
2018-09-23T22:46:07.847Z,27.90
2018-09-23T22:48:36.886Z,33.40
2018-09-23T22:51:05.875Z,33.87
2018-09-23T22:53:34.736Z,33.63
2018-09-23T22:56:03.736Z,28.93
2018-09-23T22:58:32.751Z,37.03
2018-09-23T23:01:01.636Z,32.07
2018-09-23T23:03:30.620Z,37.83
2018-09-23T23:05:59.628Z,33.43
2018-09-23T23:08:28.572Z,32.47
2018-09-23T23:10:57.508Z,35.53
2018-09-23T23:13:26.407Z,41.70
2018-09-23T23:15:55.308Z,32.23
2018-09-23T23:18:24.232Z,33.17
2018-09-23T23:20:53.186Z,32.33
2018-09-23T23:23:22.113Z,42.40
2018-09-23T23:25:51.032Z,32.73
2018-09-23T23:28:19.963Z,36.80
2018-09-23T23:30:48.880Z,40.80
2018-09-23T23:33:17.856Z,35.63
2018-09-23T23:35:46.761Z,37.97
2018-09-23T23:38:15.804Z,40.27
2018-09-23T23:40:44.821Z,39.17
2018-09-23T23:43:13.649Z,37.10
2018-09-23T23:45:42.571Z,33.73
2018-09-23T23:48:11.450Z,39.03
2018-09-23T23:50:40.394Z,39.63
2018-09-23T23:53:09.360Z,32.27
2018-09-23T23:55:38.252Z,32.77
2018-09-23T23:58:07.207Z,36.07
